createdAt,value
2024-02-14T00:00:28.462Z,99930.31
2024-02-14T00:01:00.006Z,99933.03
2024-02-14T00:01:31.628Z,99931.94
2024-02-14T00:02:03.169Z,99923.53
2024-02-14T00:02:34.739Z,99921.09
2024-02-14T00:03:06.331Z,99937.38
2024-02-14T00:03:37.973Z,99931.94
2024-02-14T00:04:09.553Z,99924.88
2024-02-14T00:04:41.065Z,99919.72
2024-02-14T00:05:12.653Z,99914.03
2024-02-14T00:05:44.158Z,99931.94
2024-02-14T00:06:15.730Z,99936.56
2024-02-14T00:06:47.317Z,99921.09
2024-02-14T00:07:18.879Z,99922.72
2024-02-14T00:07:50.465Z,99915.66
2024-02-14T00:08:23.772Z,99922.97
2024-02-14T00:08:55.316Z,99916.72
2024-02-14T00:09:26.807Z,99936.56
2024-02-14T00:09:58.255Z,99916.72
2024-02-14T00:10:29.866Z,99907.78
2024-02-14T00:11:01.370Z,99922.97
2024-02-14T00:11:32.865Z,99919.44
2024-02-14T00:12:04.553Z,99917.56
2024-02-14T00:12:36.013Z,99925.72
2024-02-14T00:13:07.459Z,99918.38
2024-02-14T00:13:38.970Z,99920.53
2024-02-14T00:14:10.462Z,99918.88
2024-02-14T00:14:42.046Z,99918.88
2024-02-14T00:15:13.632Z,99915.34
2024-02-14T00:15:45.120Z,99919.97
2024-02-14T00:16:16.593Z,99920.78
2024-02-14T00:16:48.129Z,99919.16
2024-02-14T00:17:19.647Z,99912.91
2024-02-14T00:17:51.204Z,99909.91
2024-02-14T00:18:22.848Z,99916.16
2024-02-14T00:18:54.697Z,99913.44
2024-02-14T00:19:26.304Z,99906.97
2024-02-14T00:19:58.082Z,99913.19
2024-02-14T00:20:29.636Z,99914.28
2024-02-14T00:21:01.264Z,99917.00
2024-02-14T00:21:34.444Z,99910.50
2024-02-14T00:22:06.036Z,99917.00
2024-02-14T00:22:37.523Z,99919.44
2024-02-14T00:23:09.009Z,99918.63
2024-02-14T00:23:40.587Z,99917.81
2024-02-14T00:24:12.083Z,99907.78
2024-02-14T00:24:43.607Z,99905.88
2024-02-14T00:25:20.630Z,99909.41
2024-02-14T00:25:52.604Z,99912.94
2024-02-14T00:26:24.161Z,99915.38
2024-02-14T00:26:55.754Z,99903.69
2024-02-14T00:27:27.214Z,99896.34
2024-02-14T00:27:58.750Z,99900.97
2024-02-14T00:28:30.305Z,99894.72
2024-02-14T00:29:01.950Z,99903.16
2024-02-14T00:29:33.459Z,99904.78
2024-02-14T00:30:05.100Z,99909.13
2024-02-14T00:30:36.680Z,99916.47
2024-02-14T00:31:08.185Z,99903.16
2024-02-14T00:31:42.399Z,99903.97
2024-02-14T00:32:14.001Z,99895.81
2024-02-14T00:32:45.676Z,99895.81
2024-02-14T00:33:17.381Z,99892.81
2024-02-14T00:33:49.137Z,99892.00
2024-02-14T00:34:20.838Z,99893.91
2024-02-14T00:34:52.680Z,99893.91
2024-02-14T00:35:24.462Z,99895.25
2024-02-14T00:35:56.106Z,99890.91
2024-02-14T00:36:27.598Z,99896.63
2024-02-14T00:36:59.198Z,99897.44
2024-02-14T00:37:30.631Z,99892.81
2024-02-14T00:38:02.173Z,99897.44
2024-02-14T00:38:33.741Z,99886.28
2024-02-14T00:39:05.343Z,99887.91
2024-02-14T00:39:36.911Z,99883.28
2024-02-14T00:40:08.616Z,99887.91
2024-02-14T00:40:40.141Z,99889.81
2024-02-14T00:41:11.734Z,99895.25
2024-02-14T00:41:43.279Z,99891.72
2024-02-14T00:42:14.800Z,99893.63
2024-02-14T00:42:46.360Z,99897.16
2024-02-14T00:43:17.867Z,99889.00
2024-02-14T00:43:49.313Z,99890.09
2024-02-14T00:44:20.803Z,99886.84
2024-02-14T00:44:52.398Z,99886.03
2024-02-14T00:45:23.895Z,99891.47
2024-02-14T00:45:55.370Z,99888.47
2024-02-14T00:46:26.833Z,99892.28
2024-02-14T00:46:58.375Z,99889.56
2024-02-14T00:47:30.024Z,99907.78
2024-02-14T00:48:01.774Z,99886.03
2024-02-14T00:48:33.487Z,99884.66
2024-02-14T00:49:05.133Z,99888.75
2024-02-14T00:49:36.907Z,99890.38
2024-02-14T00:50:08.404Z,99893.38
2024-02-14T00:50:39.953Z,99886.03
2024-02-14T00:51:11.487Z,99882.50
2024-02-14T00:51:42.996Z,99889.56
2024-02-14T00:52:14.498Z,99884.94
2024-02-14T00:52:45.936Z,99884.41
2024-02-14T00:53:17.454Z,99894.44
2024-02-14T00:53:51.618Z,99887.13
2024-02-14T00:54:23.160Z,99879.22
2024-02-14T00:54:54.721Z,99885.47
2024-02-14T00:55:26.163Z,99887.13
2024-02-14T00:55:57.643Z,99889.00
2024-02-14T00:56:31.750Z,99886.28
2024-02-14T00:57:03.400Z,99877.31
2024-02-14T00:57:35.056Z,99888.19
2024-02-14T00:58:06.577Z,99880.03
2024-02-14T00:58:38.060Z,99905.28
2024-02-14T00:59:09.573Z,99876.25
2024-02-14T00:59:41.121Z,99866.44
2024-02-14T01:00:12.654Z,99867.25
2024-02-14T01:00:44.234Z,99876.50
2024-02-14T01:01:15.784Z,99878.41
2024-02-14T01:01:47.266Z,99874.06
2024-02-14T01:02:18.721Z,99876.75
2024-02-14T01:02:50.261Z,99872.97
2024-02-14T01:03:21.709Z,99874.59
2024-02-14T01:03:53.326Z,99865.63
2024-02-14T01:04:24.850Z,99874.59
2024-02-14T01:04:56.374Z,99880.28
2024-02-14T01:05:28.014Z,99877.31
2024-02-14T01:05:59.686Z,99872.97
2024-02-14T01:06:31.282Z,99875.69
2024-02-14T01:07:02.775Z,99888.19
2024-02-14T01:07:34.284Z,99872.97
2024-02-14T01:08:05.798Z,99878.13
2024-02-14T01:08:37.352Z,99883.56
2024-02-14T01:09:08.917Z,99881.69
2024-02-14T01:09:40.383Z,99867.25
2024-02-14T01:10:11.820Z,99883.56
2024-02-14T01:10:43.283Z,99870.81
2024-02-14T01:11:14.749Z,99875.41
2024-02-14T01:11:46.281Z,99874.59
2024-02-14T01:12:17.826Z,99868.63
2024-02-14T01:12:49.320Z,99880.28
2024-02-14T01:13:20.851Z,99863.19
2024-02-14T01:13:55.052Z,99874.06
2024-02-14T01:14:26.522Z,99881.13
2024-02-14T01:14:58.119Z,99877.31
2024-02-14T01:15:29.603Z,99871.06
2024-02-14T01:16:01.196Z,99862.09
2024-02-14T01:16:32.707Z,99872.97
2024-02-14T01:17:06.858Z,99878.41
2024-02-14T01:17:38.423Z,99874.88
2024-02-14T01:18:10.133Z,99890.06
2024-02-14T01:18:41.817Z,99875.69
2024-02-14T01:19:13.622Z,99863.19
2024-02-14T01:19:45.282Z,99886.00
2024-02-14T01:20:16.850Z,99875.94
2024-02-14T01:20:48.393Z,99878.94
2024-02-14T01:21:19.898Z,99885.47
2024-02-14T01:21:51.366Z,99878.94
2024-02-14T01:22:22.901Z,99874.59
2024-02-14T01:22:54.409Z,99859.38
2024-02-14T01:23:25.941Z,99879.22
2024-02-14T01:23:57.454Z,99866.72
2024-02-14T01:24:28.917Z,99871.34
2024-02-14T01:25:00.428Z,99863.19
2024-02-14T01:25:31.933Z,99866.44
2024-02-14T01:26:03.493Z,99875.69
2024-02-14T01:26:35.047Z,99867.53
2024-02-14T01:27:06.762Z,99871.34
2024-02-14T01:27:38.306Z,99863.19
2024-02-14T01:28:09.804Z,99867.25
2024-02-14T01:28:41.223Z,99863.72
2024-02-14T01:29:12.695Z,99855.59
2024-02-14T01:29:44.485Z,99865.09
2024-02-14T01:30:16.070Z,99882.19
2024-02-14T01:30:50.790Z,99870.78
2024-02-14T01:31:22.308Z,99866.44
2024-02-14T01:31:53.808Z,99867.81
2024-02-14T01:32:27.815Z,99864.00
2024-02-14T01:32:59.488Z,99859.66
2024-02-14T01:33:31.141Z,99867.81
2024-02-14T01:34:02.827Z,99865.38
2024-02-14T01:34:34.636Z,99865.09
2024-02-14T01:35:06.164Z,99885.22
2024-02-14T01:35:37.648Z,99857.22
2024-02-14T01:36:09.277Z,99849.06
2024-02-14T01:36:40.791Z,99852.59
2024-02-14T01:37:17.404Z,99859.94
2024-02-14T01:37:51.929Z,99849.88
2024-02-14T01:38:23.423Z,99850.16
2024-02-14T01:38:57.927Z,99860.22
2024-02-14T01:39:29.385Z,99854.50
2024-02-14T01:40:00.813Z,99852.59
2024-02-14T01:40:32.321Z,99871.34
2024-02-14T01:41:03.837Z,99865.09
2024-02-14T01:41:35.441Z,99869.44
2024-02-14T01:42:07.002Z,99858.56
2024-02-14T01:42:38.517Z,99861.00
2024-02-14T01:43:09.961Z,99857.47
2024-02-14T01:43:41.467Z,99865.38
2024-02-14T01:44:12.936Z,99853.69
2024-02-14T01:44:44.498Z,99859.38
2024-02-14T01:45:15.978Z,99854.75
2024-02-14T01:45:47.478Z,99855.03
2024-02-14T01:46:21.428Z,99867.00
2024-02-14T01:46:52.952Z,99848.78
2024-02-14T01:47:25.597Z,99846.06
2024-02-14T01:47:57.122Z,99856.13
2024-02-14T01:48:31.762Z,99856.13
2024-02-14T01:49:06.220Z,99851.78
2024-02-14T01:49:37.889Z,99862.66
2024-02-14T01:50:09.397Z,99857.22
2024-02-14T01:50:43.609Z,99847.72
2024-02-14T01:51:15.050Z,99851.78
2024-02-14T01:51:46.578Z,99841.19
2024-02-14T01:52:18.039Z,99844.72
2024-02-14T01:52:50.432Z,99847.16
2024-02-14T01:53:21.843Z,99850.69
2024-02-14T01:53:53.333Z,99842.53
2024-02-14T01:54:24.910Z,99843.38
2024-02-14T01:54:59.432Z,99830.59
2024-02-14T01:55:30.974Z,99834.94
2024-02-14T01:56:02.416Z,99838.47
2024-02-14T01:56:33.924Z,99833.03
2024-02-14T01:57:05.398Z,99841.19
2024-02-14T01:57:36.866Z,99831.41
2024-02-14T01:58:10.183Z,99830.31
2024-02-14T01:58:41.618Z,99825.97
2024-02-14T01:59:13.095Z,99829.50
2024-02-14T01:59:44.667Z,99832.22
2024-02-14T02:00:16.209Z,99835.22
2024-02-14T02:00:48.975Z,99827.06
2024-02-14T02:01:20.477Z,99821.91
2024-02-14T02:01:54.686Z,99831.69
2024-02-14T02:02:26.262Z,99817.81
2024-02-14T02:02:57.781Z,99832.22
2024-02-14T02:03:29.269Z,99825.16
2024-02-14T02:04:00.817Z,99812.38
2024-02-14T02:04:32.434Z,99817.81
2024-02-14T02:05:03.958Z,99818.63
2024-02-14T02:05:35.573Z,99823.25
2024-02-14T02:06:07.663Z,99814.00
2024-02-14T02:06:39.293Z,99842.00
2024-02-14T02:07:10.779Z,99815.91
2024-02-14T02:07:42.253Z,99816.44
2024-02-14T02:08:13.692Z,99803.94
2024-02-14T02:08:45.316Z,99817.53
2024-02-14T02:09:16.948Z,99828.41
2024-02-14T02:09:48.488Z,99818.34
2024-02-14T02:10:20.085Z,99824.06
2024-02-14T02:10:54.065Z,99829.50
2024-02-14T02:11:25.471Z,99813.19
2024-02-14T02:11:58.592Z,99829.50
2024-02-14T02:12:30.055Z,99830.31
2024-02-14T02:13:01.553Z,99841.19
2024-02-14T02:13:33.082Z,99825.69
2024-02-14T02:14:04.522Z,99838.47
2024-02-14T02:14:36.073Z,99825.97
2024-02-14T02:15:07.661Z,99830.59
2024-02-14T02:15:39.198Z,99824.34
2024-02-14T02:16:10.725Z,99826.78
2024-02-14T02:16:42.238Z,99831.13
2024-02-14T02:17:13.690Z,99831.13
2024-02-14T02:17:45.291Z,99827.59
2024-02-14T02:18:17.035Z,99820.25
2024-02-14T02:18:48.799Z,99833.84
2024-02-14T02:19:20.410Z,99826.50
2024-02-14T02:19:51.976Z,99835.75
2024-02-14T02:20:26.273Z,99821.88
2024-02-14T02:20:57.852Z,99828.41
2024-02-14T02:21:29.354Z,99834.66
2024-02-14T02:22:00.775Z,99852.88
2024-02-14T02:22:32.264Z,99831.94
2024-02-14T02:23:03.760Z,99830.31
2024-02-14T02:23:35.226Z,99823.50
2024-02-14T02:24:09.524Z,99831.94
2024-02-14T02:24:43.652Z,99824.88
2024-02-14T02:25:15.205Z,99828.94
2024-02-14T02:25:46.667Z,99832.47
2024-02-14T02:26:18.154Z,99831.13
2024-02-14T02:26:49.702Z,99828.69
2024-02-14T02:27:21.316Z,99839.03
2024-02-14T02:27:52.835Z,99823.53
2024-02-14T02:28:24.336Z,99826.25
2024-02-14T02:28:55.849Z,99830.06
2024-02-14T02:29:30.582Z,99827.06
2024-02-14T02:30:02.184Z,99825.44
2024-02-14T02:30:33.630Z,99821.38
2024-02-14T02:31:07.396Z,99828.44
2024-02-14T02:31:38.895Z,99818.38
2024-02-14T02:32:10.432Z,99828.44
2024-02-14T02:32:41.995Z,99826.53
2024-02-14T02:33:13.596Z,99821.38
2024-02-14T02:33:45.385Z,99830.06
2024-02-14T02:34:17.054Z,99827.63
2024-02-14T02:34:48.605Z,99835.22
2024-02-14T02:35:20.083Z,99831.41
2024-02-14T02:35:51.607Z,99832.22
2024-02-14T02:36:23.210Z,99822.19
2024-02-14T02:36:54.723Z,99823.81
2024-02-14T02:37:26.194Z,99820.28
2024-02-14T02:37:57.718Z,99818.38
2024-02-14T02:38:29.180Z,99817.28
2024-02-14T02:39:00.718Z,99824.63
2024-02-14T02:39:32.147Z,99826.25
2024-02-14T02:40:05.914Z,99826.81
2024-02-14T02:40:37.384Z,99834.94
2024-02-14T02:41:09.772Z,99829.50
2024-02-14T02:41:41.293Z,99823.00
2024-02-14T02:42:12.882Z,99834.41
2024-02-14T02:42:44.379Z,99820.00
2024-02-14T02:43:17.401Z,99814.56
2024-02-14T02:43:48.889Z,99818.91
2024-02-14T02:44:20.391Z,99820.53
2024-02-14T02:44:51.971Z,99815.91
2024-02-14T02:45:23.497Z,99837.66
2024-02-14T02:45:54.998Z,99820.81
2024-02-14T02:46:28.136Z,99833.31
2024-02-14T02:46:59.595Z,99837.66
2024-02-14T02:47:31.138Z,99837.94
2024-02-14T02:48:02.866Z,99828.97
2024-02-14T02:48:34.553Z,99836.31
2024-02-14T02:49:06.271Z,99826.25
2024-02-14T02:49:37.913Z,99836.31
2024-02-14T02:50:09.381Z,99844.44
2024-02-14T02:50:40.874Z,99842.53
2024-02-14T02:51:12.428Z,99831.69
2024-02-14T02:51:43.944Z,99825.44
2024-02-14T02:52:15.452Z,99828.97
2024-02-14T02:52:46.953Z,99839.81
2024-02-14T02:53:18.409Z,99835.50
2024-02-14T02:53:49.899Z,99828.97
2024-02-14T02:54:21.364Z,99829.50
2024-02-14T02:54:56.005Z,99843.38
2024-02-14T02:55:27.729Z,99832.50
2024-02-14T02:55:59.271Z,99829.78
2024-02-14T02:56:30.831Z,99832.22
2024-02-14T02:57:02.491Z,99835.75
2024-02-14T02:57:34.001Z,99840.09
2024-02-14T02:58:05.457Z,99830.88
2024-02-14T02:58:36.935Z,99831.69
2024-02-14T02:59:08.465Z,99835.50
2024-02-14T02:59:39.951Z,99835.50
2024-02-14T03:00:11.476Z,99833.59
2024-02-14T03:00:42.949Z,99833.59
2024-02-14T03:01:14.441Z,99834.41
2024-02-14T03:01:50.467Z,99831.69
2024-02-14T03:02:21.934Z,99825.16
2024-02-14T03:02:53.446Z,99837.13
2024-02-14T03:03:24.944Z,99834.41
2024-02-14T03:03:56.411Z,99837.94
2024-02-14T03:04:41.318Z,99845.25
2024-02-14T03:05:20.165Z,99844.19
2024-02-14T03:05:51.988Z,99839.81
2024-02-14T03:06:23.551Z,99840.66
2024-02-14T03:06:55.125Z,99842.53
2024-02-14T03:07:26.630Z,99839.03
2024-02-14T03:07:58.067Z,99840.91
2024-02-14T03:08:29.580Z,99831.97
2024-02-14T03:09:01.178Z,99847.16
2024-02-14T03:09:32.716Z,99843.63
2024-02-14T03:10:04.251Z,99847.97
2024-02-14T03:10:35.850Z,99841.75
2024-02-14T03:11:07.437Z,99837.94
2024-02-14T03:11:38.952Z,99833.31
2024-02-14T03:12:10.450Z,99832.22
2024-02-14T03:12:41.975Z,99835.22
2024-02-14T03:13:13.441Z,99845.00
2024-02-14T03:13:44.941Z,99828.69
2024-02-14T03:14:16.437Z,99830.59
2024-02-14T03:14:48.103Z,99839.56
2024-02-14T03:15:19.763Z,99837.94
2024-02-14T03:15:51.209Z,99836.31
2024-02-14T03:16:22.684Z,99846.06
2024-02-14T03:16:54.123Z,99843.63
2024-02-14T03:17:25.657Z,99833.03
2024-02-14T03:17:57.359Z,99845.53
2024-02-14T03:18:29.082Z,99835.75
2024-02-14T03:19:00.783Z,99839.28
2024-02-14T03:19:32.350Z,99846.34
2024-02-14T03:20:07.140Z,99838.22
2024-02-14T03:20:39.134Z,99842.53
2024-02-14T03:21:10.679Z,99846.06
2024-02-14T03:21:45.186Z,99836.03
2024-02-14T03:22:16.651Z,99841.47
2024-02-14T03:22:49.881Z,99846.91
2024-02-14T03:23:21.480Z,99846.91
2024-02-14T03:23:54.820Z,99845.25
2024-02-14T03:24:26.242Z,99842.53
2024-02-14T03:24:57.698Z,99846.91
2024-02-14T03:25:32.034Z,99847.97
2024-02-14T03:26:03.544Z,99842.53
2024-02-14T03:26:37.639Z,99850.16
2024-02-14T03:27:09.140Z,99847.72
2024-02-14T03:27:40.721Z,99845.53
2024-02-14T03:28:12.264Z,99856.13
2024-02-14T03:28:43.713Z,99846.34
2024-02-14T03:29:15.201Z,99841.75
2024-02-14T03:29:46.727Z,99842.53
2024-02-14T03:30:19.183Z,99843.38
2024-02-14T03:30:51.149Z,99853.13
2024-02-14T03:31:22.651Z,99846.91
2024-02-14T03:31:54.192Z,99833.31
2024-02-14T03:32:25.652Z,99849.59
2024-02-14T03:32:57.347Z,99840.38
2024-02-14T03:33:29.236Z,99837.66
2024-02-14T03:34:00.888Z,99834.94
2024-02-14T03:34:32.748Z,99823.25
2024-02-14T03:35:04.327Z,99842.00
2024-02-14T03:35:35.892Z,99825.16
2024-02-14T03:36:07.528Z,99843.09
2024-02-14T03:36:40.184Z,99842.28
2024-02-14T03:37:11.655Z,99840.66
2024-02-14T03:37:43.175Z,99830.06
2024-02-14T03:38:14.667Z,99836.31
2024-02-14T03:38:46.196Z,99841.75
2024-02-14T03:39:19.234Z,99840.66
2024-02-14T03:39:50.754Z,99847.97
2024-02-14T03:40:22.235Z,99834.41
2024-02-14T03:40:53.676Z,99838.75
2024-02-14T03:41:25.238Z,99836.03
2024-02-14T03:41:56.931Z,99843.38
2024-02-14T03:42:28.400Z,99838.75
2024-02-14T03:42:59.864Z,99843.38
2024-02-14T03:43:32.498Z,99833.59
2024-02-14T03:44:04.055Z,99831.69
2024-02-14T03:44:35.513Z,99844.44
2024-02-14T03:45:07.110Z,99834.41
2024-02-14T03:45:38.604Z,99844.19
2024-02-14T03:46:10.079Z,99842.28
2024-02-14T03:46:41.546Z,99835.22
2024-02-14T03:47:13.074Z,99827.88
2024-02-14T03:47:44.613Z,99832.22
2024-02-14T03:48:16.311Z,99829.50
2024-02-14T03:48:51.059Z,99829.78
2024-02-14T03:49:22.690Z,99827.88
2024-02-14T03:49:54.210Z,99829.78
2024-02-14T03:50:25.671Z,99834.13
2024-02-14T03:50:57.131Z,99839.56
2024-02-14T03:51:28.655Z,99827.88
2024-02-14T03:52:03.087Z,99828.41
2024-02-14T03:52:34.541Z,99833.84
2024-02-14T03:53:06.048Z,99833.31
2024-02-14T03:53:37.542Z,99822.97
2024-02-14T03:54:09.104Z,99822.16
2024-02-14T03:54:40.587Z,99829.22
2024-02-14T03:55:12.045Z,99833.03
2024-02-14T03:55:43.476Z,99836.56
2024-02-14T03:56:15.008Z,99832.22
2024-02-14T03:56:46.533Z,99831.13
2024-02-14T03:57:18.069Z,99833.03
2024-02-14T03:57:49.659Z,99838.75
2024-02-14T03:58:23.615Z,99828.41
2024-02-14T03:58:55.106Z,99837.66
2024-02-14T03:59:26.737Z,99839.56
2024-02-14T03:59:58.272Z,99844.19
2024-02-14T04:00:29.824Z,99843.38
2024-02-14T04:01:01.419Z,99842.81
2024-02-14T04:01:36.124Z,99830.06
2024-02-14T04:02:07.613Z,99840.91
2024-02-14T04:02:40.700Z,99829.25
2024-02-14T04:03:12.704Z,99830.06
2024-02-14T04:03:44.224Z,99825.44
2024-02-14T04:04:15.772Z,99825.44
2024-02-14T04:04:47.253Z,99827.06
2024-02-14T04:05:21.711Z,99823.53
2024-02-14T04:05:53.260Z,99827.88
2024-02-14T04:06:24.870Z,99832.50
2024-02-14T04:06:56.407Z,99829.50
2024-02-14T04:07:27.947Z,99830.88
2024-02-14T04:08:01.269Z,99827.06
2024-02-14T04:08:32.825Z,99836.84
2024-02-14T04:09:04.434Z,99835.22
2024-02-14T04:09:35.981Z,99827.88
2024-02-14T04:10:07.484Z,99826.25
2024-02-14T04:10:38.951Z,99830.59
2024-02-14T04:11:10.445Z,99836.84
2024-02-14T04:11:41.933Z,99834.94
2024-02-14T04:12:13.453Z,99835.75
2024-02-14T04:12:44.983Z,99849.34
2024-02-14T04:13:16.496Z,99833.03
2024-02-14T04:13:47.972Z,99828.41
2024-02-14T04:14:19.491Z,99835.47
2024-02-14T04:14:50.895Z,99838.72
2024-02-14T04:15:22.453Z,99841.44
2024-02-14T04:15:53.915Z,99832.75
2024-02-14T04:16:25.386Z,99832.75
2024-02-14T04:16:56.843Z,99843.63
2024-02-14T04:17:28.449Z,99842.00
2024-02-14T04:18:34.582Z,99824.88
2024-02-14T04:19:06.332Z,99839.81
2024-02-14T04:19:38.037Z,99814.81
2024-02-14T04:20:09.606Z,99850.16
2024-02-14T04:20:41.187Z,99840.38
2024-02-14T04:21:15.384Z,99832.22
2024-02-14T04:21:47.088Z,99839.81
2024-02-14T04:22:18.626Z,99844.19
2024-02-14T04:22:50.155Z,99839.56
2024-02-14T04:23:21.675Z,99842.28
2024-02-14T04:23:53.267Z,99836.56
2024-02-14T04:24:24.811Z,99836.56
2024-02-14T04:24:56.245Z,99844.72
2024-02-14T04:25:30.344Z,99839.28
2024-02-14T04:26:01.779Z,99842.28
2024-02-14T04:26:33.336Z,99848.25
2024-02-14T04:27:04.889Z,99837.38
2024-02-14T04:27:36.538Z,99844.72
2024-02-14T04:28:08.006Z,99831.13
2024-02-14T04:28:39.504Z,99836.56
2024-02-14T04:29:11.084Z,99833.03
2024-02-14T04:29:42.539Z,99835.75
2024-02-14T04:30:14.114Z,99857.47
2024-02-14T04:30:45.713Z,99842.28
2024-02-14T04:31:17.161Z,99838.75
2024-02-14T04:31:48.618Z,99833.31
2024-02-14T04:32:20.123Z,99836.84
2024-02-14T04:32:51.738Z,99833.31
2024-02-14T04:33:23.682Z,99841.47
2024-02-14T04:34:00.062Z,99839.28
2024-02-14T04:34:32.332Z,99834.13
2024-02-14T04:35:04.132Z,99836.84
2024-02-14T04:35:35.682Z,99833.84
2024-02-14T04:36:09.995Z,99834.94
2024-02-14T04:36:41.578Z,99842.28
2024-02-14T04:37:13.069Z,99848.78
2024-02-14T04:37:44.598Z,99841.47
2024-02-14T04:38:16.618Z,99855.03
2024-02-14T04:38:48.142Z,99845.25
2024-02-14T04:39:19.686Z,99839.81
2024-02-14T04:39:51.202Z,99847.97
2024-02-14T04:40:22.856Z,99850.69
2024-02-14T04:40:54.354Z,99841.75
2024-02-14T04:41:25.889Z,99854.22
2024-02-14T04:42:02.516Z,99852.31
2024-02-14T04:42:35.025Z,99858.03
2024-02-14T04:43:06.602Z,99853.41
2024-02-14T04:43:38.065Z,99846.91
2024-02-14T04:44:09.507Z,99849.59
2024-02-14T04:44:40.999Z,99851.25
2024-02-14T04:45:12.594Z,99856.66
2024-02-14T04:45:44.146Z,99861.81
2024-02-14T04:46:15.793Z,99845.81
2024-02-14T04:46:50.176Z,99848.53
2024-02-14T04:47:21.670Z,99856.66
2024-02-14T04:47:53.230Z,99857.47
2024-02-14T04:48:24.881Z,99850.16
2024-02-14T04:48:56.506Z,99854.50
2024-02-14T04:49:28.165Z,99849.06
2024-02-14T04:49:59.780Z,99846.88
2024-02-14T04:50:31.402Z,99846.34
2024-02-14T04:51:05.576Z,99852.31
2024-02-14T04:51:37.463Z,99845.53
2024-02-14T04:52:09.036Z,99854.50
2024-02-14T04:52:40.653Z,99856.13
2024-02-14T04:53:12.153Z,99845.53
2024-02-14T04:53:43.787Z,99851.78
2024-02-14T04:54:15.422Z,99845.25
2024-02-14T04:54:46.972Z,99848.25
2024-02-14T04:55:18.557Z,99838.72
2024-02-14T04:55:50.037Z,99858.84
2024-02-14T04:56:21.554Z,99847.97
2024-02-14T04:56:56.344Z,99850.69
2024-02-14T04:57:29.968Z,99846.34
2024-02-14T04:58:03.667Z,99850.69
2024-02-14T04:58:35.201Z,99842.81
2024-02-14T04:59:06.689Z,99853.13
2024-02-14T04:59:38.216Z,99838.72
2024-02-14T05:00:09.672Z,99849.59
2024-02-14T05:00:41.329Z,99838.19
2024-02-14T05:01:12.883Z,99846.34
2024-02-14T05:01:44.464Z,99837.09
2024-02-14T05:02:15.979Z,99853.13
2024-02-14T05:02:47.427Z,99847.69
2024-02-14T05:03:19.166Z,99848.25
2024-02-14T05:03:50.831Z,99856.94
2024-02-14T05:04:22.495Z,99845.25
2024-02-14T05:04:54.048Z,99846.06
2024-02-14T05:05:25.551Z,99852.31
2024-02-14T05:05:57.207Z,99853.13
2024-02-14T05:06:31.776Z,99848.22
2024-02-14T05:07:03.472Z,99845.78
2024-02-14T05:07:35.010Z,99864.81
2024-02-14T05:08:06.655Z,99868.34
2024-02-14T05:08:38.163Z,99856.66
2024-02-14T05:09:09.712Z,99863.72
2024-02-14T05:09:41.131Z,99854.50
2024-02-14T05:10:12.651Z,99861.81
2024-02-14T05:10:44.133Z,99862.09
2024-02-14T05:11:15.614Z,99865.63
2024-02-14T05:11:47.085Z,99857.75
2024-02-14T05:12:18.554Z,99858.56
2024-02-14T05:12:50.117Z,99864.28
2024-02-14T05:13:21.578Z,99867.00
2024-02-14T05:13:53.040Z,99856.94
2024-02-14T05:14:24.580Z,99847.44
2024-02-14T05:14:56.138Z,99859.66
2024-02-14T05:15:27.653Z,99854.22
2024-02-14T05:15:59.184Z,99867.00
2024-02-14T05:16:30.695Z,99862.38
2024-02-14T05:17:02.201Z,99859.13
2024-02-14T05:17:33.679Z,99859.94
2024-02-14T05:18:05.333Z,99872.44
2024-02-14T05:18:37.079Z,99863.72
2024-02-14T05:19:08.809Z,99862.91
2024-02-14T05:19:40.500Z,99864.28
2024-02-14T05:20:12.109Z,99867.81
2024-02-14T05:20:43.640Z,99872.44
2024-02-14T05:21:15.177Z,99854.50
2024-02-14T05:21:46.653Z,99864.53
2024-02-14T05:22:18.127Z,99859.94
2024-02-14T05:22:49.617Z,99865.91
2024-02-14T05:23:21.057Z,99865.09
2024-02-14T05:23:54.619Z,99867.81
2024-02-14T05:24:26.195Z,99862.91
2024-02-14T05:24:57.689Z,99863.72
2024-02-14T05:25:29.182Z,99865.38
2024-02-14T05:26:00.693Z,99868.09
2024-02-14T05:26:32.281Z,99880.59
2024-02-14T05:27:03.837Z,99865.91
2024-02-14T05:27:35.384Z,99875.97
2024-02-14T05:28:06.892Z,99865.91
2024-02-14T05:28:38.439Z,99865.91
2024-02-14T05:29:09.972Z,99871.34
2024-02-14T05:29:41.558Z,99865.91
2024-02-14T05:30:13.056Z,99865.91
2024-02-14T05:30:50.612Z,99861.56
2024-02-14T05:31:22.129Z,99864.81
2024-02-14T05:31:53.779Z,99863.19
2024-02-14T05:32:25.425Z,99866.72
2024-02-14T05:32:57.095Z,99871.06
2024-02-14T05:33:28.859Z,99857.75
2024-02-14T05:34:03.504Z,99868.34
2024-02-14T05:34:35.278Z,99865.34
2024-02-14T05:35:07.045Z,99864.53
2024-02-14T05:35:38.767Z,99861.00
2024-02-14T05:36:10.335Z,99867.25
2024-02-14T05:36:41.886Z,99864.81
2024-02-14T05:37:13.368Z,99884.66
2024-02-14T05:37:44.843Z,99860.47
2024-02-14T05:38:16.391Z,99862.91
2024-02-14T05:38:47.930Z,99861.28
2024-02-14T05:39:19.388Z,99858.56
2024-02-14T05:39:50.921Z,99866.72
2024-02-14T05:40:22.366Z,99865.91
2024-02-14T05:40:53.817Z,99866.72
2024-02-14T05:41:25.384Z,99863.19
2024-02-14T05:41:56.899Z,99874.06
2024-02-14T05:42:28.565Z,99871.34
2024-02-14T05:43:00.081Z,99867.81
2024-02-14T05:43:34.411Z,99864.28
2024-02-14T05:44:07.923Z,99870.53
2024-02-14T05:44:39.440Z,99871.34
2024-02-14T05:45:11.158Z,99870.25
2024-02-14T05:45:42.766Z,99880.84
2024-02-14T05:46:14.271Z,99882.47
2024-02-14T05:46:45.817Z,99881.94
2024-02-14T05:47:17.279Z,99872.97
2024-02-14T05:47:48.963Z,99880.03
2024-02-14T05:48:20.718Z,99877.31
2024-02-14T05:48:52.369Z,99874.59
2024-02-14T05:49:24.140Z,99889.28
2024-02-14T05:49:55.952Z,99879.22
2024-02-14T05:50:27.580Z,99875.69
2024-02-14T05:50:59.112Z,99885.75
2024-02-14T05:51:30.662Z,99876.50
2024-02-14T05:52:02.124Z,99881.94
2024-02-14T05:52:33.645Z,99876.50
2024-02-14T05:53:07.875Z,99886.28
2024-02-14T05:53:39.472Z,99866.44
2024-02-14T05:54:11.005Z,99881.94
2024-02-14T05:54:42.468Z,99890.38
2024-02-14T05:55:14.066Z,99879.22
2024-02-14T05:55:47.724Z,99876.50
2024-02-14T05:56:19.171Z,99878.41
2024-02-14T05:56:50.691Z,99882.47
2024-02-14T05:57:22.374Z,99880.84
2024-02-14T05:57:53.921Z,99881.94
2024-02-14T05:58:28.022Z,99878.41
2024-02-14T05:58:59.474Z,99884.66
2024-02-14T05:59:31.034Z,99882.22
2024-02-14T06:00:05.679Z,99886.84
2024-02-14T06:00:37.773Z,99892.81
2024-02-14T06:01:09.637Z,99886.56
2024-02-14T06:01:44.304Z,99883.31
2024-02-14T06:02:15.825Z,99888.19
2024-02-14T06:02:47.340Z,99883.84
2024-02-14T06:03:18.782Z,99884.94
2024-02-14T06:03:51.947Z,99877.59
2024-02-14T06:04:23.471Z,99893.63
2024-02-14T06:04:54.917Z,99889.56
2024-02-14T06:05:26.407Z,99889.28
2024-02-14T06:05:58.040Z,99890.38
2024-02-14T06:06:29.637Z,99887.66
2024-02-14T06:07:04.192Z,99893.38
2024-02-14T06:07:35.722Z,99895.28
2024-02-14T06:08:07.325Z,99902.34
2024-02-14T06:08:38.818Z,99896.09
2024-02-14T06:09:10.418Z,99884.41
2024-02-14T06:09:42.035Z,99891.47
2024-02-14T06:10:13.545Z,99886.84
2024-02-14T06:10:45.053Z,99893.09
2024-02-14T06:11:16.562Z,99899.34
2024-02-14T06:11:48.116Z,99890.09
2024-02-14T06:12:19.604Z,99892.81
2024-02-14T06:12:51.079Z,99903.69
2024-02-14T06:13:22.530Z,99904.50
2024-02-14T06:13:54.029Z,99890.91
2024-02-14T06:14:28.275Z,99895.53
2024-02-14T06:14:59.847Z,99890.09